sensor_id;sensor_type;location;lat;lon;timestamp;P1;durP1;ratioP1;P2;durP2;ratioP2
10088;SDS011;51898;49.864;8.550;2023-06-10T00:02:09;12.67;;;11.47;;
10088;SDS011;51898;49.864;8.550;2023-06-10T00:05:11;13.17;;;12.03;;
10088;SDS011;51898;49.864;8.550;2023-06-10T00:08:13;13.10;;;11.90;;
10088;SDS011;51898;49.864;8.550;2023-06-10T00:11:16;14.43;;;13.13;;
10088;SDS011;51898;49.864;8.550;2023-06-10T00:14:18;13.47;;;12.33;;
10088;SDS011;51898;49.864;8.550;2023-06-10T00:17:20;13.50;;;12.20;;
10088;SDS011;51898;49.864;8.550;2023-06-10T00:20:24;14.13;;;11.77;;
10088;SDS011;51898;49.864;8.550;2023-06-10T00:23:26;14.23;;;12.93;;
10088;SDS011;51898;49.864;8.550;2023-06-10T00:26:30;13.53;;;12.00;;
10088;SDS011;51898;49.864;8.550;2023-06-10T00:29:33;14.17;;;12.70;;
10088;SDS011;51898;49.864;8.550;2023-06-10T00:32:35;13.40;;;12.00;;
10088;SDS011;51898;49.864;8.550;2023-06-10T00:35:37;14.20;;;12.90;;
10088;SDS011;51898;49.864;8.550;2023-06-10T00:38:39;14.83;;;13.10;;
10088;SDS011;51898;49.864;8.550;2023-06-10T00:41:42;14.90;;;13.40;;
10088;SDS011;51898;49.864;8.550;2023-06-10T00:44:43;13.23;;;12.10;;
10088;SDS011;51898;49.864;8.550;2023-06-10T00:47:45;14.10;;;12.80;;
10088;SDS011;51898;49.864;8.550;2023-06-10T00:50:47;14.37;;;12.93;;
10088;SDS011;51898;49.864;8.550;2023-06-10T00:53:49;13.40;;;12.03;;
10088;SDS011;51898;49.864;8.550;2023-06-10T00:56:53;12.87;;;11.67;;
10088;SDS011;51898;49.864;8.550;2023-06-10T00:59:55;13.50;;;12.10;;
10088;SDS011;51898;49.864;8.550;2023-06-10T01:02:57;13.60;;;12.30;;
10088;SDS011;51898;49.864;8.550;2023-06-10T01:06:06;13.20;;;12.10;;
10088;SDS011;51898;49.864;8.550;2023-06-10T01:09:38;13.90;;;12.60;;
10088;SDS011;51898;49.864;8.550;2023-06-10T01:12:52;13.60;;;12.30;;
10088;SDS011;51898;49.864;8.550;2023-06-10T01:15:55;13.40;;;12.10;;
10088;SDS011;51898;49.864;8.550;2023-06-10T01:18:57;13.93;;;12.53;;
10088;SDS011;51898;49.864;8.550;2023-06-10T01:21:59;14.10;;;12.80;;
10088;SDS011;51898;49.864;8.550;2023-06-10T01:25:02;12.20;;;11.10;;
10088;SDS011;51898;49.864;8.550;2023-06-10T01:28:07;15.00;;;13.60;;
10088;SDS011;51898;49.864;8.550;2023-06-10T01:34:43;14.33;;;12.97;;
10088;SDS011;51898;49.864;8.550;2023-06-10T01:37:46;13.27;;;11.97;;
10088;SDS011;51898;49.864;8.550;2023-06-10T01:40:49;14.27;;;12.87;;
10088;SDS011;51898;49.864;8.550;2023-06-10T01:43:54;14.43;;;13.03;;
10088;SDS011;51898;49.864;8.550;2023-06-10T01:46:56;14.13;;;12.93;;
10088;SDS011;51898;49.864;8.550;2023-06-10T01:49:58;13.77;;;12.57;;
10088;SDS011;51898;49.864;8.550;2023-06-10T01:52:59;14.00;;;12.70;;
10088;SDS011;51898;49.864;8.550;2023-06-10T01:56:01;14.30;;;12.90;;
10088;SDS011;51898;49.864;8.550;2023-06-10T01:59:03;13.37;;;12.10;;
10088;SDS011;51898;49.864;8.550;2023-06-10T02:02:05;13.90;;;12.60;;
10088;SDS011;51898;49.864;8.550;2023-06-10T02:05:06;14.60;;;13.20;;
10088;SDS011;51898;49.864;8.550;2023-06-10T02:08:09;14.60;;;13.13;;
10088;SDS011;51898;49.864;8.550;2023-06-10T02:11:10;14.80;;;13.30;;
10088;SDS011;51898;49.864;8.550;2023-06-10T02:14:12;13.97;;;12.53;;
10088;SDS011;51898;49.864;8.550;2023-06-10T02:17:14;14.67;;;13.07;;
10088;SDS011;51898;49.864;8.550;2023-06-10T02:20:15;15.37;;;14.00;;
10088;SDS011;51898;49.864;8.550;2023-06-10T02:23:17;14.67;;;13.17;;
10088;SDS011;51898;49.864;8.550;2023-06-10T02:26:19;14.83;;;13.17;;
10088;SDS011;51898;49.864;8.550;2023-06-10T02:29:21;13.67;;;12.43;;
10088;SDS011;51898;49.864;8.550;2023-06-10T02:32:23;15.57;;;13.93;;
10088;SDS011;51898;49.864;8.550;2023-06-10T02:35:25;14.90;;;13.50;;
10088;SDS011;51898;49.864;8.550;2023-06-10T02:38:26;15.10;;;13.70;;
10088;SDS011;51898;49.864;8.550;2023-06-10T02:41:28;15.20;;;13.70;;
10088;SDS011;51898;49.864;8.550;2023-06-10T02:44:30;15.93;;;13.40;;
10088;SDS011;51898;49.864;8.550;2023-06-10T02:47:31;13.73;;;12.47;;
10088;SDS011;51898;49.864;8.550;2023-06-10T02:50:33;16.20;;;14.03;;
10088;SDS011;51898;49.864;8.550;2023-06-10T02:53:35;15.53;;;14.03;;
10088;SDS011;51898;49.864;8.550;2023-06-10T02:56:37;17.20;;;14.67;;
10088;SDS011;51898;49.864;8.550;2023-06-10T02:59:42;15.27;;;13.70;;
10088;SDS011;51898;49.864;8.550;2023-06-10T03:02:44;16.00;;;14.40;;
10088;SDS011;51898;49.864;8.550;2023-06-10T03:05:47;16.20;;;14.23;;
10088;SDS011;51898;49.864;8.550;2023-06-10T03:08:49;17.80;;;15.00;;
10088;SDS011;51898;49.864;8.550;2023-06-10T03:11:50;16.90;;;15.17;;
10088;SDS011;51898;49.864;8.550;2023-06-10T03:14:52;16.23;;;14.53;;
10088;SDS011;51898;49.864;8.550;2023-06-10T03:17:54;19.00;;;15.30;;
10088;SDS011;51898;49.864;8.550;2023-06-10T03:20:56;15.03;;;13.53;;
10088;SDS011;51898;49.864;8.550;2023-06-10T03:23:58;18.20;;;16.03;;
10088;SDS011;51898;49.864;8.550;2023-06-10T03:27:00;17.27;;;15.47;;
10088;SDS011;51898;49.864;8.550;2023-06-10T03:30:02;16.13;;;14.23;;
10088;SDS011;51898;49.864;8.550;2023-06-10T03:33:04;15.87;;;14.23;;
10088;SDS011;51898;49.864;8.550;2023-06-10T03:36:06;16.13;;;14.53;;
10088;SDS011;51898;49.864;8.550;2023-06-10T03:39:08;16.00;;;14.40;;
10088;SDS011;51898;49.864;8.550;2023-06-10T03:42:10;16.83;;;15.07;;
10088;SDS011;51898;49.864;8.550;2023-06-10T03:45:12;18.80;;;14.77;;
10088;SDS011;51898;49.864;8.550;2023-06-10T03:48:14;18.53;;;15.20;;
10088;SDS011;51898;49.864;8.550;2023-06-10T03:51:16;15.93;;;14.23;;
10088;SDS011;51898;49.864;8.550;2023-06-10T03:54:17;15.40;;;13.90;;
10088;SDS011;51898;49.864;8.550;2023-06-10T03:57:19;16.73;;;15.03;;
10088;SDS011;51898;49.864;8.550;2023-06-10T04:00:21;15.63;;;14.07;;
10088;SDS011;51898;49.864;8.550;2023-06-10T04:03:23;16.03;;;14.43;;
10088;SDS011;51898;49.864;8.550;2023-06-10T04:06:25;15.43;;;14.03;;
10088;SDS011;51898;49.864;8.550;2023-06-10T04:09:26;15.27;;;13.70;;
10088;SDS011;51898;49.864;8.550;2023-06-10T04:12:28;17.43;;;15.20;;
10088;SDS011;51898;49.864;8.550;2023-06-10T04:15:30;16.80;;;15.20;;
10088;SDS011;51898;49.864;8.550;2023-06-10T04:18:34;15.77;;;14.13;;
10088;SDS011;51898;49.864;8.550;2023-06-10T04:21:37;14.77;;;13.37;;
10088;SDS011;51898;49.864;8.550;2023-06-10T04:24:38;15.67;;;14.10;;
10088;SDS011;51898;49.864;8.550;2023-06-10T04:27:41;16.00;;;14.40;;
10088;SDS011;51898;49.864;8.550;2023-06-10T04:30:43;15.47;;;13.97;;
10088;SDS011;51898;49.864;8.550;2023-06-10T04:33:46;15.60;;;14.20;;
10088;SDS011;51898;49.864;8.550;2023-06-10T04:36:47;14.07;;;12.83;;
10088;SDS011;51898;49.864;8.550;2023-06-10T04:39:49;13.50;;;12.40;;
10088;SDS011;51898;49.864;8.550;2023-06-10T04:42:51;14.80;;;13.40;;
10088;SDS011;51898;49.864;8.550;2023-06-10T04:45:52;15.00;;;13.50;;
10088;SDS011;51898;49.864;8.550;2023-06-10T04:48:54;13.80;;;12.60;;
10088;SDS011;51898;49.864;8.550;2023-06-10T04:51:56;15.73;;;14.03;;
10088;SDS011;51898;49.864;8.550;2023-06-10T04:54:57;14.93;;;13.40;;
10088;SDS011;51898;49.864;8.550;2023-06-10T04:57:59;14.13;;;12.73;;
10088;SDS011;51898;49.864;8.550;2023-06-10T05:01:01;17.23;;;14.20;;
10088;SDS011;51898;49.864;8.550;2023-06-10T05:04:03;16.40;;;13.17;;
10088;SDS011;51898;49.864;8.550;2023-06-10T05:07:05;14.67;;;13.37;;
10088;SDS011;51898;49.864;8.550;2023-06-10T05:10:07;13.83;;;12.57;;
10088;SDS011;51898;49.864;8.550;2023-06-10T05:13:09;14.90;;;12.17;;
10088;SDS011;51898;49.864;8.550;2023-06-10T05:16:11;13.83;;;12.57;;
10088;SDS011;51898;49.864;8.550;2023-06-10T05:19:13;14.03;;;12.73;;
10088;SDS011;51898;49.864;8.550;2023-06-10T05:22:15;14.00;;;12.80;;
10088;SDS011;51898;49.864;8.550;2023-06-10T05:25:17;14.30;;;12.80;;
10088;SDS011;51898;49.864;8.550;2023-06-10T05:28:19;14.90;;;13.50;;
10088;SDS011;51898;49.864;8.550;2023-06-10T05:31:21;14.67;;;12.63;;
10088;SDS011;51898;49.864;8.550;2023-06-10T05:34:23;14.87;;;12.50;;
10088;SDS011;51898;49.864;8.550;2023-06-10T05:37:25;13.60;;;12.30;;
10088;SDS011;51898;49.864;8.550;2023-06-10T05:40:27;12.87;;;10.93;;
10088;SDS011;51898;49.864;8.550;2023-06-10T05:43:28;19.13;;;12.37;;
10088;SDS011;51898;49.864;8.550;2023-06-10T05:46:30;12.20;;;11.00;;
10088;SDS011;51898;49.864;8.550;2023-06-10T05:49:31;13.53;;;10.97;;
10088;SDS011;51898;49.864;8.550;2023-06-10T05:52:33;12.13;;;11.00;;
10088;SDS011;51898;49.864;8.550;2023-06-10T05:55:36;13.07;;;11.67;;
10088;SDS011;51898;49.864;8.550;2023-06-10T05:58:37;12.00;;;10.77;;
10088;SDS011;51898;49.864;8.550;2023-06-10T06:01:39;11.83;;;10.83;;
10088;SDS011;51898;49.864;8.550;2023-06-10T06:04:41;11.83;;;10.70;;
10088;SDS011;51898;49.864;8.550;2023-06-10T06:07:43;11.30;;;10.10;;
10088;SDS011;51898;49.864;8.550;2023-06-10T06:10:44;11.03;;;10.00;;
10088;SDS011;51898;49.864;8.550;2023-06-10T06:13:47;11.83;;;10.80;;
10088;SDS011;51898;49.864;8.550;2023-06-10T06:16:53;11.20;;;10.20;;
10088;SDS011;51898;49.864;8.550;2023-06-10T06:19:55;12.00;;;10.90;;
10088;SDS011;51898;49.864;8.550;2023-06-10T06:22:56;13.47;;;10.53;;
10088;SDS011;51898;49.864;8.550;2023-06-10T06:25:58;10.60;;;9.70;;
10088;SDS011;51898;49.864;8.550;2023-06-10T06:29:00;10.90;;;10.00;;
10088;SDS011;51898;49.864;8.550;2023-06-10T06:32:01;12.00;;;10.80;;
10088;SDS011;51898;49.864;8.550;2023-06-10T06:35:03;13.63;;;9.93;;
10088;SDS011;51898;49.864;8.550;2023-06-10T06:38:09;11.37;;;10.37;;
10088;SDS011;51898;49.864;8.550;2023-06-10T06:41:11;10.93;;;10.00;;
10088;SDS011;51898;49.864;8.550;2023-06-10T06:44:12;12.00;;;10.63;;
10088;SDS011;51898;49.864;8.550;2023-06-10T06:47:14;11.40;;;10.30;;
10088;SDS011;51898;49.864;8.550;2023-06-10T06:50:18;10.70;;;9.67;;
10088;SDS011;51898;49.864;8.550;2023-06-10T06:53:20;11.83;;;10.67;;
10088;SDS011;51898;49.864;8.550;2023-06-10T06:56:22;11.97;;;10.77;;
10088;SDS011;51898;49.864;8.550;2023-06-10T06:59:24;12.00;;;10.50;;
10088;SDS011;51898;49.864;8.550;2023-06-10T07:02:26;10.57;;;9.67;;
10088;SDS011;51898;49.864;8.550;2023-06-10T07:05:28;11.80;;;9.67;;
10088;SDS011;51898;49.864;8.550;2023-06-10T07:08:31;10.80;;;9.80;;
10088;SDS011;51898;49.864;8.550;2023-06-10T07:11:33;12.00;;;10.90;;
10088;SDS011;51898;49.864;8.550;2023-06-10T07:14:34;12.33;;;9.33;;
10088;SDS011;51898;49.864;8.550;2023-06-10T07:17:36;10.97;;;9.97;;
10088;SDS011;51898;49.864;8.550;2023-06-10T07:20:38;11.30;;;10.10;;
10088;SDS011;51898;49.864;8.550;2023-06-10T07:23:42;11.37;;;10.10;;
10088;SDS011;51898;49.864;8.550;2023-06-10T07:26:44;11.03;;;9.97;;
10088;SDS011;51898;49.864;8.550;2023-06-10T07:29:46;12.80;;;11.70;;
10088;SDS011;51898;49.864;8.550;2023-06-10T07:32:47;11.90;;;10.80;;
10088;SDS011;51898;49.864;8.550;2023-06-10T07:35:49;11.30;;;10.30;;
10088;SDS011;51898;49.864;8.550;2023-06-10T07:38:51;12.57;;;11.47;;
10088;SDS011;51898;49.864;8.550;2023-06-10T07:41:52;11.93;;;10.80;;
10088;SDS011;51898;49.864;8.550;2023-06-10T07:44:55;13.03;;;11.73;;
10088;SDS011;51898;49.864;8.550;2023-06-10T07:47:56;11.93;;;10.20;;
10088;SDS011;51898;49.864;8.550;2023-06-10T07:50:58;11.83;;;10.13;;
10088;SDS011;51898;49.864;8.550;2023-06-10T07:54:00;11.07;;;10.07;;
10088;SDS011;51898;49.864;8.550;2023-06-10T07:57:02;12.10;;;10.93;;
10088;SDS011;51898;49.864;8.550;2023-06-10T08:00:04;11.23;;;10.13;;
10088;SDS011;51898;49.864;8.550;2023-06-10T08:03:07;11.00;;;10.10;;
10088;SDS011;51898;49.864;8.550;2023-06-10T08:06:09;11.93;;;10.70;;
10088;SDS011;51898;49.864;8.550;2023-06-10T08:09:12;12.20;;;11.00;;
10088;SDS011;51898;49.864;8.550;2023-06-10T08:12:14;11.27;;;10.37;;
10088;SDS011;51898;49.864;8.550;2023-06-10T08:15:16;11.67;;;10.67;;
10088;SDS011;51898;49.864;8.550;2023-06-10T08:18:18;12.17;;;11.17;;
10088;SDS011;51898;49.864;8.550;2023-06-10T08:21:19;11.87;;;10.87;;
10088;SDS011;51898;49.864;8.550;2023-06-10T08:24:21;12.90;;;11.70;;
10088;SDS011;51898;49.864;8.550;2023-06-10T08:27:23;12.07;;;10.90;;
10088;SDS011;51898;49.864;8.550;2023-06-10T08:30:25;12.80;;;11.50;;
10088;SDS011;51898;49.864;8.550;2023-06-10T08:33:26;12.83;;;11.60;;
10088;SDS011;51898;49.864;8.550;2023-06-10T08:36:28;13.17;;;11.97;;
10088;SDS011;51898;49.864;8.550;2023-06-10T08:39:30;15.67;;;11.23;;
10088;SDS011;51898;49.864;8.550;2023-06-10T08:42:34;11.70;;;10.60;;
10088;SDS011;51898;49.864;8.550;2023-06-10T08:45:39;11.93;;;10.83;;
10088;SDS011;51898;49.864;8.550;2023-06-10T08:48:44;11.67;;;10.77;;
10088;SDS011;51898;49.864;8.550;2023-06-10T08:51:50;12.80;;;11.70;;
10088;SDS011;51898;49.864;8.550;2023-06-10T08:54:54;12.47;;;11.37;;
10088;SDS011;51898;49.864;8.550;2023-06-10T08:58:00;11.30;;;10.30;;
10088;SDS011;51898;49.864;8.550;2023-06-10T09:01:02;12.60;;;11.50;;
10088;SDS011;51898;49.864;8.550;2023-06-10T09:04:04;12.23;;;11.13;;
10088;SDS011;51898;49.864;8.550;2023-06-10T09:07:07;12.90;;;11.80;;
10088;SDS011;51898;49.864;8.550;2023-06-10T09:10:09;11.73;;;10.90;;
10088;SDS011;51898;49.864;8.550;2023-06-10T09:13:12;11.17;;;10.27;;
10088;SDS011;51898;49.864;8.550;2023-06-10T09:16:16;11.63;;;10.63;;
10088;SDS011;51898;49.864;8.550;2023-06-10T09:19:18;12.10;;;10.93;;
10088;SDS011;51898;49.864;8.550;2023-06-10T09:22:22;11.77;;;10.87;;
10088;SDS011;51898;49.864;8.550;2023-06-10T09:25:34;13.13;;;11.93;;
10088;SDS011;51898;49.864;8.550;2023-06-10T09:28:37;12.40;;;11.33;;
10088;SDS011;51898;49.864;8.550;2023-06-10T09:31:41;10.93;;;10.00;;
10088;SDS011;51898;49.864;8.550;2023-06-10T09:34:44;11.13;;;10.13;;
10088;SDS011;51898;49.864;8.550;2023-06-10T09:37:48;11.70;;;10.70;;
10088;SDS011;51898;49.864;8.550;2023-06-10T09:40:53;11.00;;;9.90;;
10088;SDS011;51898;49.864;8.550;2023-06-10T09:43:55;10.77;;;9.77;;
10088;SDS011;51898;49.864;8.550;2023-06-10T09:46:57;15.43;;;10.27;;
10088;SDS011;51898;49.864;8.550;2023-06-10T09:50:00;10.60;;;9.80;;
10088;SDS011;51898;49.864;8.550;2023-06-10T09:53:03;10.50;;;9.60;;
10088;SDS011;51898;49.864;8.550;2023-06-10T09:56:07;10.70;;;9.70;;
10088;SDS011;51898;49.864;8.550;2023-06-10T09:59:11;10.60;;;9.60;;
10088;SDS011;51898;49.864;8.550;2023-06-10T10:02:13;9.93;;;9.13;;
10088;SDS011;51898;49.864;8.550;2023-06-10T10:05:20;11.03;;;9.93;;
10088;SDS011;51898;49.864;8.550;2023-06-10T10:08:23;11.17;;;10.17;;
10088;SDS011;51898;49.864;8.550;2023-06-10T10:11:25;11.53;;;10.50;;
10088;SDS011;51898;49.864;8.550;2023-06-10T10:14:28;10.17;;;9.20;;
10088;SDS011;51898;49.864;8.550;2023-06-10T10:17:34;10.53;;;9.50;;
10088;SDS011;51898;49.864;8.550;2023-06-10T10:20:46;11.30;;;10.40;;
10088;SDS011;51898;49.864;8.550;2023-06-10T10:26:58;10.80;;;10.00;;
10088;SDS011;51898;49.864;8.550;2023-06-10T10:30:02;11.50;;;10.70;;
10088;SDS011;51898;49.864;8.550;2023-06-10T10:33:12;10.80;;;10.00;;
10088;SDS011;51898;49.864;8.550;2023-06-10T10:36:18;11.80;;;10.80;;
10088;SDS011;51898;49.864;8.550;2023-06-10T10:39:20;12.13;;;11.13;;
10088;SDS011;51898;49.864;8.550;2023-06-10T10:42:23;14.17;;;12.77;;
10088;SDS011;51898;49.864;8.550;2023-06-10T10:45:27;10.73;;;9.87;;
10088;SDS011;51898;49.864;8.550;2023-06-10T10:48:37;11.43;;;10.33;;
10088;SDS011;51898;49.864;8.550;2023-06-10T10:51:53;9.27;;;8.67;;
10088;SDS011;51898;49.864;8.550;2023-06-10T10:54:57;11.53;;;10.63;;
10088;SDS011;51898;49.864;8.550;2023-06-10T11:01:13;9.20;;;8.50;;
10088;SDS011;51898;49.864;8.550;2023-06-10T11:04:18;9.20;;;8.40;;
10088;SDS011;51898;49.864;8.550;2023-06-10T11:07:20;9.33;;;8.53;;
10088;SDS011;51898;49.864;8.550;2023-06-10T11:10:32;7.80;;;7.10;;
10088;SDS011;51898;49.864;8.550;2023-06-10T11:13:35;8.10;;;7.40;;
10088;SDS011;51898;49.864;8.550;2023-06-10T11:16:40;7.40;;;6.72;;
10088;SDS011;51898;49.864;8.550;2023-06-10T11:19:43;7.00;;;6.50;;
10088;SDS011;51898;49.864;8.550;2023-06-10T11:23:00;7.70;;;6.90;;
10088;SDS011;51898;49.864;8.550;2023-06-10T11:29:33;8.00;;;7.35;;
10088;SDS011;51898;49.864;8.550;2023-06-10T11:32:35;7.40;;;6.60;;
10088;SDS011;51898;49.864;8.550;2023-06-10T11:35:37;7.63;;;7.00;;
10088;SDS011;51898;49.864;8.550;2023-06-10T11:38:38;6.80;;;6.38;;
10088;SDS011;51898;49.864;8.550;2023-06-10T11:41:41;7.60;;;7.00;;
10088;SDS011;51898;49.864;8.550;2023-06-10T11:44:52;7.45;;;6.88;;
10088;SDS011;51898;49.864;8.550;2023-06-10T11:47:58;6.85;;;6.35;;
10088;SDS011;51898;49.864;8.550;2023-06-10T11:51:06;7.05;;;6.55;;
10088;SDS011;51898;49.864;8.550;2023-06-10T11:54:09;6.97;;;6.47;;
10088;SDS011;51898;49.864;8.550;2023-06-10T11:57:11;10.70;;;6.53;;
10088;SDS011;51898;49.864;8.550;2023-06-10T12:00:13;7.32;;;6.82;;
10088;SDS011;51898;49.864;8.550;2023-06-10T12:03:15;7.50;;;6.90;;
10088;SDS011;51898;49.864;8.550;2023-06-10T12:06:18;7.43;;;6.93;;
10088;SDS011;51898;49.864;8.550;2023-06-10T12:09:27;7.63;;;6.93;;
10088;SDS011;51898;49.864;8.550;2023-06-10T12:12:34;8.32;;;7.57;;
10088;SDS011;51898;49.864;8.550;2023-06-10T12:15:38;7.68;;;6.97;;
10088;SDS011;51898;49.864;8.550;2023-06-10T12:18:41;7.53;;;7.03;;
10088;SDS011;51898;49.864;8.550;2023-06-10T12:21:47;8.68;;;7.95;;
10088;SDS011;51898;49.864;8.550;2023-06-10T12:25:02;8.07;;;7.53;;
10088;SDS011;51898;49.864;8.550;2023-06-10T12:28:05;7.72;;;7.05;;
10088;SDS011;51898;49.864;8.550;2023-06-10T12:31:11;7.95;;;7.43;;
10088;SDS011;51898;49.864;8.550;2023-06-10T12:34:13;6.68;;;6.18;;
10088;SDS011;51898;49.864;8.550;2023-06-10T12:37:14;7.45;;;6.85;;
10088;SDS011;51898;49.864;8.550;2023-06-10T12:40:16;7.50;;;7.00;;
10088;SDS011;51898;49.864;8.550;2023-06-10T12:43:21;8.18;;;7.57;;
10088;SDS011;51898;49.864;8.550;2023-06-10T12:46:24;8.77;;;7.60;;
10088;SDS011;51898;49.864;8.550;2023-06-10T12:49:26;7.20;;;6.70;;
10088;SDS011;51898;49.864;8.550;2023-06-10T12:52:28;7.72;;;7.22;;
10088;SDS011;51898;49.864;8.550;2023-06-10T12:55:30;7.93;;;7.22;;
10088;SDS011;51898;49.864;8.550;2023-06-10T12:58:32;7.57;;;7.07;;
10088;SDS011;51898;49.864;8.550;2023-06-10T13:01:34;7.65;;;6.95;;
10088;SDS011;51898;49.864;8.550;2023-06-10T13:04:36;8.10;;;7.25;;
10088;SDS011;51898;49.864;8.550;2023-06-10T13:07:38;8.10;;;7.50;;
10088;SDS011;51898;49.864;8.550;2023-06-10T13:10:40;8.77;;;8.07;;
10088;SDS011;51898;49.864;8.550;2023-06-10T13:13:41;8.07;;;7.47;;
10088;SDS011;51898;49.864;8.550;2023-06-10T13:16:43;8.10;;;7.60;;
10088;SDS011;51898;49.864;8.550;2023-06-10T13:19:45;8.68;;;7.97;;
10088;SDS011;51898;49.864;8.550;2023-06-10T13:22:47;8.50;;;7.97;;
10088;SDS011;51898;49.864;8.550;2023-06-10T13:25:50;8.82;;;8.13;;
10088;SDS011;51898;49.864;8.550;2023-06-10T13:28:52;9.77;;;8.98;;
10088;SDS011;51898;49.864;8.550;2023-06-10T13:31:53;8.70;;;8.10;;
10088;SDS011;51898;49.864;8.550;2023-06-10T13:34:55;9.25;;;8.63;;
10088;SDS011;51898;49.864;8.550;2023-06-10T13:37:58;7.88;;;7.28;;
10088;SDS011;51898;49.864;8.550;2023-06-10T13:40:59;7.40;;;6.80;;
10088;SDS011;51898;49.864;8.550;2023-06-10T13:44:04;7.30;;;6.72;;
10088;SDS011;51898;49.864;8.550;2023-06-10T13:47:07;8.25;;;7.68;;
10088;SDS011;51898;49.864;8.550;2023-06-10T13:50:09;8.57;;;7.97;;
10088;SDS011;51898;49.864;8.550;2023-06-10T13:53:11;8.38;;;7.68;;
10088;SDS011;51898;49.864;8.550;2023-06-10T13:56:13;8.55;;;7.85;;
10088;SDS011;51898;49.864;8.550;2023-06-10T13:59:15;8.73;;;8.02;;
10088;SDS011;51898;49.864;8.550;2023-06-10T14:02:17;8.25;;;7.63;;
10088;SDS011;51898;49.864;8.550;2023-06-10T14:05:19;8.40;;;7.80;;
10088;SDS011;51898;49.864;8.550;2023-06-10T14:08:22;8.73;;;7.90;;
10088;SDS011;51898;49.864;8.550;2023-06-10T14:11:24;9.32;;;8.60;;
10088;SDS011;51898;49.864;8.550;2023-06-10T14:14:26;8.48;;;7.72;;
10088;SDS011;51898;49.864;8.550;2023-06-10T14:17:28;8.57;;;7.93;;
10088;SDS011;51898;49.864;8.550;2023-06-10T14:20:29;9.07;;;8.10;;
10088;SDS011;51898;49.864;8.550;2023-06-10T14:23:32;8.90;;;8.20;;
10088;SDS011;51898;49.864;8.550;2023-06-10T14:26:34;9.60;;;8.85;;
10088;SDS011;51898;49.864;8.550;2023-06-10T14:29:35;8.88;;;8.20;;
10088;SDS011;51898;49.864;8.550;2023-06-10T14:32:37;8.38;;;7.78;;
10088;SDS011;51898;49.864;8.550;2023-06-10T14:35:39;8.50;;;7.90;;
10088;SDS011;51898;49.864;8.550;2023-06-10T14:38:41;8.77;;;8.07;;
10088;SDS011;51898;49.864;8.550;2023-06-10T14:41:42;9.00;;;8.20;;
10088;SDS011;51898;49.864;8.550;2023-06-10T14:44:44;7.93;;;7.43;;
10088;SDS011;51898;49.864;8.550;2023-06-10T14:47:46;8.70;;;8.10;;
10088;SDS011;51898;49.864;8.550;2023-06-10T14:50:48;9.63;;;8.30;;
10088;SDS011;51898;49.864;8.550;2023-06-10T14:53:52;9.52;;;8.82;;
10088;SDS011;51898;49.864;8.550;2023-06-10T14:56:53;8.65;;;7.95;;
10088;SDS011;51898;49.864;8.550;2023-06-10T14:59:55;9.13;;;8.52;;
10088;SDS011;51898;49.864;8.550;2023-06-10T15:02:57;9.80;;;9.00;;
10088;SDS011;51898;49.864;8.550;2023-06-10T15:05:59;9.23;;;8.63;;
10088;SDS011;51898;49.864;8.550;2023-06-10T15:09:02;9.70;;;9.00;;
10088;SDS011;51898;49.864;8.550;2023-06-10T15:12:03;9.38;;;8.65;;
10088;SDS011;51898;49.864;8.550;2023-06-10T15:15:06;9.82;;;8.98;;
10088;SDS011;51898;49.864;8.550;2023-06-10T15:18:09;9.18;;;8.48;;
10088;SDS011;51898;49.864;8.550;2023-06-10T15:21:11;8.82;;;8.23;;
10088;SDS011;51898;49.864;8.550;2023-06-10T15:24:13;8.57;;;7.78;;
10088;SDS011;51898;49.864;8.550;2023-06-10T15:27:14;9.00;;;8.30;;
10088;SDS011;51898;49.864;8.550;2023-06-10T15:30:16;9.60;;;8.68;;
10088;SDS011;51898;49.864;8.550;2023-06-10T15:33:18;10.20;;;9.40;;
10088;SDS011;51898;49.864;8.550;2023-06-10T15:36:20;9.82;;;8.85;;
10088;SDS011;51898;49.864;8.550;2023-06-10T15:39:22;8.13;;;7.63;;
10088;SDS011;51898;49.864;8.550;2023-06-10T15:42:25;10.93;;;8.00;;
10088;SDS011;51898;49.864;8.550;2023-06-10T15:45:27;7.93;;;7.43;;
10088;SDS011;51898;49.864;8.550;2023-06-10T15:48:29;8.95;;;8.35;;
10088;SDS011;51898;49.864;8.550;2023-06-10T15:51:31;7.60;;;7.10;;
10088;SDS011;51898;49.864;8.550;2023-06-10T15:54:32;8.35;;;7.65;;
10088;SDS011;51898;49.864;8.550;2023-06-10T15:57:36;8.90;;;8.15;;
10088;SDS011;51898;49.864;8.550;2023-06-10T16:00:38;9.38;;;8.77;;
10088;SDS011;51898;49.864;8.550;2023-06-10T16:03:40;8.52;;;7.93;;
10088;SDS011;51898;49.864;8.550;2023-06-10T16:06:42;9.38;;;8.60;;
10088;SDS011;51898;49.864;8.550;2023-06-10T16:09:44;7.70;;;7.10;;
10088;SDS011;51898;49.864;8.550;2023-06-10T16:12:46;7.95;;;7.45;;
10088;SDS011;51898;49.864;8.550;2023-06-10T16:15:49;7.95;;;7.25;;
10088;SDS011;51898;49.864;8.550;2023-06-10T16:18:51;9.45;;;8.43;;
10088;SDS011;51898;49.864;8.550;2023-06-10T16:21:53;8.30;;;7.70;;
10088;SDS011;51898;49.864;8.550;2023-06-10T16:24:54;9.52;;;8.45;;
10088;SDS011;51898;49.864;8.550;2023-06-10T16:27:56;8.30;;;7.72;;
10088;SDS011;51898;49.864;8.550;2023-06-10T16:30:59;8.70;;;8.10;;
10088;SDS011;51898;49.864;8.550;2023-06-10T16:34:01;9.48;;;8.80;;
10088;SDS011;51898;49.864;8.550;2023-06-10T16:37:04;7.90;;;7.40;;
10088;SDS011;51898;49.864;8.550;2023-06-10T16:40:06;7.88;;;7.28;;
10088;SDS011;51898;49.864;8.550;2023-06-10T16:43:08;8.40;;;7.75;;
10088;SDS011;51898;49.864;8.550;2023-06-10T16:46:09;8.07;;;7.35;;
10088;SDS011;51898;49.864;8.550;2023-06-10T16:49:11;7.43;;;6.80;;
10088;SDS011;51898;49.864;8.550;2023-06-10T16:52:13;7.90;;;7.30;;
10088;SDS011;51898;49.864;8.550;2023-06-10T16:55:14;7.47;;;6.90;;
10088;SDS011;51898;49.864;8.550;2023-06-10T16:58:16;7.65;;;7.05;;
10088;SDS011;51898;49.864;8.550;2023-06-10T17:01:18;8.18;;;7.38;;
10088;SDS011;51898;49.864;8.550;2023-06-10T17:04:20;7.53;;;6.93;;
10088;SDS011;51898;49.864;8.550;2023-06-10T17:07:22;7.10;;;6.60;;
10088;SDS011;51898;49.864;8.550;2023-06-10T17:10:24;7.53;;;7.03;;
10088;SDS011;51898;49.864;8.550;2023-06-10T17:13:26;7.70;;;7.18;;
10088;SDS011;51898;49.864;8.550;2023-06-10T17:16:28;7.55;;;6.95;;
10088;SDS011;51898;49.864;8.550;2023-06-10T17:19:30;7.40;;;6.78;;
10088;SDS011;51898;49.864;8.550;2023-06-10T17:22:32;7.65;;;7.03;;
10088;SDS011;51898;49.864;8.550;2023-06-10T17:25:33;6.80;;;6.30;;
10088;SDS011;51898;49.864;8.550;2023-06-10T17:28:37;7.20;;;6.70;;
10088;SDS011;51898;49.864;8.550;2023-06-10T17:31:39;8.02;;;7.18;;
10088;SDS011;51898;49.864;8.550;2023-06-10T17:34:40;7.85;;;7.15;;
10088;SDS011;51898;49.864;8.550;2023-06-10T17:37:42;7.70;;;7.10;;
10088;SDS011;51898;49.864;8.550;2023-06-10T17:40:44;7.93;;;7.32;;
10088;SDS011;51898;49.864;8.550;2023-06-10T17:43:45;7.50;;;7.00;;
10088;SDS011;51898;49.864;8.550;2023-06-10T17:46:47;8.00;;;7.30;;
10088;SDS011;51898;49.864;8.550;2023-06-10T17:49:49;7.70;;;7.20;;
10088;SDS011;51898;49.864;8.550;2023-06-10T17:52:51;7.95;;;7.25;;
10088;SDS011;51898;49.864;8.550;2023-06-10T17:55:52;7.95;;;7.25;;
10088;SDS011;51898;49.864;8.550;2023-06-10T17:58:54;8.32;;;7.53;;
10088;SDS011;51898;49.864;8.550;2023-06-10T18:01:56;8.20;;;7.60;;
10088;SDS011;51898;49.864;8.550;2023-06-10T18:04:58;7.78;;;7.25;;
10088;SDS011;51898;49.864;8.550;2023-06-10T18:07:59;8.07;;;7.38;;
10088;SDS011;51898;49.864;8.550;2023-06-10T18:11:01;8.93;;;8.33;;
10088;SDS011;51898;49.864;8.550;2023-06-10T18:14:04;8.83;;;8.20;;
10088;SDS011;51898;49.864;8.550;2023-06-10T18:17:06;8.00;;;7.50;;